sensor_id;sensor_type;location;lat;lon;timestamp;pressure;altitude;pressure_sealevel;temperature;humidity
80323;BME280;69636;52.372;13.610;2024-03-08T00:01:47;102175.31;;;-1.17;100.00
80323;BME280;69636;52.372;13.610;2024-03-08T00:04:14;102170.47;;;-0.99;100.00
80323;BME280;69636;52.372;13.610;2024-03-08T00:06:41;102172.34;;;-0.75;100.00
80323;BME280;69636;52.372;13.610;2024-03-08T00:09:09;102162.06;;;-0.80;100.00
80323;BME280;69636;52.372;13.610;2024-03-08T00:11:36;102159.72;;;-0.89;100.00
80323;BME280;69636;52.372;13.610;2024-03-08T00:14:05;102165.69;;;-1.15;100.00
80323;BME280;69636;52.372;13.610;2024-03-08T00:16:32;102162.41;;;-1.21;100.00
80323;BME280;69636;52.372;13.610;2024-03-08T00:19:00;102155.84;;;-1.34;100.00
80323;BME280;69636;52.372;13.610;2024-03-08T00:21:27;102157.97;;;-1.18;100.00
80323;BME280;69636;52.372;13.610;2024-03-08T00:23:54;102157.28;;;-1.24;100.00
80323;BME280;69636;52.372;13.610;2024-03-08T00:26:22;102169.25;;;-1.17;100.00
80323;BME280;69636;52.372;13.610;2024-03-08T00:28:49;102167.91;;;-1.30;100.00
80323;BME280;69636;52.372;13.610;2024-03-08T00:31:18;102159.34;;;-1.35;100.00
80323;BME280;69636;52.372;13.610;2024-03-08T00:33:45;102160.69;;;-1.53;100.00
80323;BME280;69636;52.372;13.610;2024-03-08T00:36:12;102161.91;;;-1.34;100.00
80323;BME280;69636;52.372;13.610;2024-03-08T00:38:39;102162.22;;;-1.45;100.00
80323;BME280;69636;52.372;13.610;2024-03-08T00:41:07;102164.16;;;-1.53;100.00
80323;BME280;69636;52.372;13.610;2024-03-08T00:43:34;102160.97;;;-1.62;100.00
80323;BME280;69636;52.372;13.610;2024-03-08T00:46:01;102162.03;;;-1.69;100.00
80323;BME280;69636;52.372;13.610;2024-03-08T00:48:30;102164.59;;;-1.68;100.00
80323;BME280;69636;52.372;13.610;2024-03-08T00:50:58;102152.47;;;-1.69;100.00
80323;BME280;69636;52.372;13.610;2024-03-08T00:53:25;102151.22;;;-1.56;100.00
80323;BME280;69636;52.372;13.610;2024-03-08T00:55:52;102148.97;;;-1.68;100.00
80323;BME280;69636;52.372;13.610;2024-03-08T00:58:20;102151.69;;;-1.73;100.00
80323;BME280;69636;52.372;13.610;2024-03-08T01:00:47;102144.66;;;-1.69;100.00
80323;BME280;69636;52.372;13.610;2024-03-08T01:03:15;102141.31;;;-1.74;100.00
80323;BME280;69636;52.372;13.610;2024-03-08T01:05:44;102140.09;;;-1.61;100.00
80323;BME280;69636;52.372;13.610;2024-03-08T01:08:11;102139.38;;;-1.66;100.00
80323;BME280;69636;52.372;13.610;2024-03-08T01:10:38;102131.91;;;-1.80;100.00
80323;BME280;69636;52.372;13.610;2024-03-08T01:13:06;102132.91;;;-1.84;100.00
80323;BME280;69636;52.372;13.610;2024-03-08T01:15:33;102129.59;;;-1.90;100.00
80323;BME280;69636;52.372;13.610;2024-03-08T01:18:00;102126.19;;;-1.92;100.00
80323;BME280;69636;52.372;13.610;2024-03-08T01:20:28;102126.19;;;-1.92;100.00
80323;BME280;69636;52.372;13.610;2024-03-08T01:22:57;102125.19;;;-1.56;100.00
80323;BME280;69636;52.372;13.610;2024-03-08T01:25:24;102121.94;;;-1.64;100.00
80323;BME280;69636;52.372;13.610;2024-03-08T01:27:51;102119.38;;;-1.65;100.00
80323;BME280;69636;52.372;13.610;2024-03-08T01:30:19;102111.69;;;-1.70;100.00
80323;BME280;69636;52.372;13.610;2024-03-08T01:32:46;102112.66;;;-1.74;100.00
80323;BME280;69636;52.372;13.610;2024-03-08T01:35:13;102118.72;;;-1.74;100.00
80323;BME280;69636;52.372;13.610;2024-03-08T01:37:41;102106.25;;;-1.61;100.00
80323;BME280;69636;52.372;13.610;2024-03-08T01:40:10;102107.69;;;-1.51;100.00
80323;BME280;69636;52.372;13.610;2024-03-08T01:42:39;102104.69;;;-1.68;100.00
80323;BME280;69636;52.372;13.610;2024-03-08T01:45:07;102102.56;;;-1.54;100.00
80323;BME280;69636;52.372;13.610;2024-03-08T01:47:35;102102.47;;;-1.51;100.00
80323;BME280;69636;52.372;13.610;2024-03-08T01:50:03;102100.84;;;-1.55;100.00
80323;BME280;69636;52.372;13.610;2024-03-08T01:52:31;102095.38;;;-1.46;100.00
80323;BME280;69636;52.372;13.610;2024-03-08T01:54:59;102090.31;;;-1.21;100.00
80323;BME280;69636;52.372;13.610;2024-03-08T01:57:31;102091.81;;;-1.12;100.00
80323;BME280;69636;52.372;13.610;2024-03-08T01:59:58;102081.59;;;-1.20;100.00
80323;BME280;69636;52.372;13.610;2024-03-08T02:02:26;102080.75;;;-1.20;100.00
80323;BME280;69636;52.372;13.610;2024-03-08T02:04:53;102081.13;;;-1.32;100.00
80323;BME280;69636;52.372;13.610;2024-03-08T02:07:21;102080.56;;;-1.14;100.00
80323;BME280;69636;52.372;13.610;2024-03-08T02:09:48;102080.50;;;-1.41;100.00
80323;BME280;69636;52.372;13.610;2024-03-08T02:12:16;102074.78;;;-1.24;100.00
80323;BME280;69636;52.372;13.610;2024-03-08T02:14:45;102077.56;;;-1.02;100.00
80323;BME280;69636;52.372;13.610;2024-03-08T02:17:12;102073.75;;;-1.18;100.00
80323;BME280;69636;52.372;13.610;2024-03-08T02:19:39;102068.91;;;-1.30;100.00
80323;BME280;69636;52.372;13.610;2024-03-08T02:22:08;102065.25;;;-1.25;100.00
80323;BME280;69636;52.372;13.610;2024-03-08T02:24:35;102067.50;;;-1.13;100.00
80323;BME280;69636;52.372;13.610;2024-03-08T02:27:03;102064.53;;;-1.02;100.00
80323;BME280;69636;52.372;13.610;2024-03-08T02:29:31;102066.81;;;-1.19;100.00
80323;BME280;69636;52.372;13.610;2024-03-08T02:32:00;102064.13;;;-1.16;100.00
80323;BME280;69636;52.372;13.610;2024-03-08T02:34:28;102061.97;;;-1.04;100.00
80323;BME280;69636;52.372;13.610;2024-03-08T02:36:55;102063.88;;;-1.37;100.00
80323;BME280;69636;52.372;13.610;2024-03-08T02:39:24;102059.06;;;-1.21;100.00
80323;BME280;69636;52.372;13.610;2024-03-08T02:41:51;102061.16;;;-1.04;100.00
80323;BME280;69636;52.372;13.610;2024-03-08T02:44:18;102056.97;;;-1.38;100.00
80323;BME280;69636;52.372;13.610;2024-03-08T02:46:45;102055.09;;;-1.05;100.00
80323;BME280;69636;52.372;13.610;2024-03-08T02:49:13;102059.25;;;-0.99;100.00
80323;BME280;69636;52.372;13.610;2024-03-08T02:51:40;102053.03;;;-0.95;100.00
80323;BME280;69636;52.372;13.610;2024-03-08T02:54:07;102052.94;;;-0.92;100.00
80323;BME280;69636;52.372;13.610;2024-03-08T02:56:36;102047.78;;;-0.93;100.00
80323;BME280;69636;52.372;13.610;2024-03-08T02:59:03;102047.19;;;-1.03;100.00
80323;BME280;69636;52.372;13.610;2024-03-08T03:01:31;102038.38;;;-1.27;100.00
80323;BME280;69636;52.372;13.610;2024-03-08T03:03:58;102033.28;;;-1.30;100.00
80323;BME280;69636;52.372;13.610;2024-03-08T03:06:25;102039.09;;;-1.22;100.00
80323;BME280;69636;52.372;13.610;2024-03-08T03:08:53;102047.91;;;-0.98;100.00
80323;BME280;69636;52.372;13.610;2024-03-08T03:11:20;102046.50;;;-1.08;100.00
80323;BME280;69636;52.372;13.610;2024-03-08T03:13:49;102054.59;;;-1.17;100.00
80323;BME280;69636;52.372;13.610;2024-03-08T03:16:17;102044.00;;;-1.11;100.00
80323;BME280;69636;52.372;13.610;2024-03-08T03:18:45;102040.94;;;-0.97;100.00
80323;BME280;69636;52.372;13.610;2024-03-08T03:21:12;102048.91;;;-1.02;100.00
80323;BME280;69636;52.372;13.610;2024-03-08T03:23:40;102048.50;;;-1.16;100.00
80323;BME280;69636;52.372;13.610;2024-03-08T03:26:07;102047.22;;;-1.31;100.00
80323;BME280;69636;52.372;13.610;2024-03-08T03:28:35;102042.91;;;-1.04;100.00
80323;BME280;69636;52.372;13.610;2024-03-08T03:31:04;102041.34;;;-0.82;100.00
80323;BME280;69636;52.372;13.610;2024-03-08T03:33:36;102037.81;;;-0.81;100.00
80323;BME280;69636;52.372;13.610;2024-03-08T03:36:04;102038.88;;;-0.86;100.00
80323;BME280;69636;52.372;13.610;2024-03-08T03:38:31;102039.09;;;-0.94;100.00
80323;BME280;69636;52.372;13.610;2024-03-08T03:40:59;102038.28;;;-0.96;100.00
80323;BME280;69636;52.372;13.610;2024-03-08T03:43:26;102032.72;;;-0.84;100.00
80323;BME280;69636;52.372;13.610;2024-03-08T03:45:53;102031.81;;;-0.83;100.00
80323;BME280;69636;52.372;13.610;2024-03-08T03:48:22;102043.91;;;-1.08;100.00
80323;BME280;69636;52.372;13.610;2024-03-08T03:50:49;102033.66;;;-1.14;100.00
80323;BME280;69636;52.372;13.610;2024-03-08T03:53:17;102044.38;;;-1.23;100.00
80323;BME280;69636;52.372;13.610;2024-03-08T03:55:44;102040.69;;;-1.16;100.00
80323;BME280;69636;52.372;13.610;2024-03-08T03:58:12;102037.00;;;-1.09;100.00
80323;BME280;69636;52.372;13.610;2024-03-08T04:00:39;102037.72;;;-1.04;100.00
80323;BME280;69636;52.372;13.610;2024-03-08T04:03:07;102033.84;;;-1.20;100.00
80323;BME280;69636;52.372;13.610;2024-03-08T04:05:35;102031.28;;;-1.22;100.00
80323;BME280;69636;52.372;13.610;2024-03-08T04:08:03;102028.25;;;-1.36;100.00
80323;BME280;69636;52.372;13.610;2024-03-08T04:10:31;102031.00;;;-1.41;100.00
80323;BME280;69636;52.372;13.610;2024-03-08T04:12:58;102037.84;;;-1.37;100.00
80323;BME280;69636;52.372;13.610;2024-03-08T04:15:25;102035.34;;;-1.41;100.00
80323;BME280;69636;52.372;13.610;2024-03-08T04:17:53;102035.19;;;-1.35;100.00
80323;BME280;69636;52.372;13.610;2024-03-08T04:20:20;102030.91;;;-1.38;100.00
80323;BME280;69636;52.372;13.610;2024-03-08T04:22:49;102030.03;;;-1.37;100.00
80323;BME280;69636;52.372;13.610;2024-03-08T04:25:17;102035.59;;;-1.21;100.00
80323;BME280;69636;52.372;13.610;2024-03-08T04:27:44;102028.00;;;-1.28;100.00
80323;BME280;69636;52.372;13.610;2024-03-08T04:30:12;102033.94;;;-1.23;100.00
80323;BME280;69636;52.372;13.610;2024-03-08T04:32:40;102033.03;;;-1.22;100.00
80323;BME280;69636;52.372;13.610;2024-03-08T04:35:08;102032.19;;;-0.95;100.00
80323;BME280;69636;52.372;13.610;2024-03-08T04:37:35;102020.56;;;-0.85;100.00
80323;BME280;69636;52.372;13.610;2024-03-08T04:40:05;102036.28;;;-1.14;100.00
80323;BME280;69636;52.372;13.610;2024-03-08T04:42:33;102026.34;;;-1.03;100.00
80323;BME280;69636;52.372;13.610;2024-03-08T04:45:01;102034.44;;;-1.11;100.00
80323;BME280;69636;52.372;13.610;2024-03-08T04:47:28;102022.75;;;-0.99;100.00
80323;BME280;69636;52.372;13.610;2024-03-08T04:49:56;102023.31;;;-0.89;100.00
80323;BME280;69636;52.372;13.610;2024-03-08T04:52:23;102024.78;;;-1.07;100.00
80323;BME280;69636;52.372;13.610;2024-03-08T04:54:51;102033.66;;;-0.86;100.00
80323;BME280;69636;52.372;13.610;2024-03-08T04:57:20;102026.56;;;-1.09;100.00
80323;BME280;69636;52.372;13.610;2024-03-08T04:59:47;102026.63;;;-1.11;100.00
80323;BME280;69636;52.372;13.610;2024-03-08T05:02:15;102025.31;;;-1.25;100.00
80323;BME280;69636;52.372;13.610;2024-03-08T05:04:42;102012.69;;;-1.10;100.00
80323;BME280;69636;52.372;13.610;2024-03-08T05:07:10;102024.09;;;-1.14;100.00
80323;BME280;69636;52.372;13.610;2024-03-08T05:09:37;102024.78;;;-1.07;100.00
80323;BME280;69636;52.372;13.610;2024-03-08T05:12:05;102021.00;;;-1.26;100.00
80323;BME280;69636;52.372;13.610;2024-03-08T05:14:34;102024.34;;;-1.51;100.00
80323;BME280;69636;52.372;13.610;2024-03-08T05:17:02;102017.34;;;-1.49;100.00
80323;BME280;69636;52.372;13.610;2024-03-08T05:19:30;102021.75;;;-1.23;100.00
80323;BME280;69636;52.372;13.610;2024-03-08T05:22:01;102019.56;;;-1.07;100.00
80323;BME280;69636;52.372;13.610;2024-03-08T05:24:29;102017.94;;;-1.11;100.00
80323;BME280;69636;52.372;13.610;2024-03-08T05:26:56;102013.50;;;-1.08;100.00
80323;BME280;69636;52.372;13.610;2024-03-08T05:29:23;102011.06;;;-1.14;100.00
80323;BME280;69636;52.372;13.610;2024-03-08T05:31:52;102008.88;;;-0.99;100.00
80323;BME280;69636;52.372;13.610;2024-03-08T05:34:20;102009.69;;;-1.25;100.00
80323;BME280;69636;52.372;13.610;2024-03-08T05:36:48;102005.91;;;-1.15;100.00
80323;BME280;69636;52.372;13.610;2024-03-08T05:39:16;102006.09;;;-1.21;100.00
80323;BME280;69636;52.372;13.610;2024-03-08T05:41:44;102003.53;;;-1.23;100.00
80323;BME280;69636;52.372;13.610;2024-03-08T05:44:12;102006.19;;;-1.24;100.00
80323;BME280;69636;52.372;13.610;2024-03-08T05:46:39;101999.47;;;-1.31;100.00
80323;BME280;69636;52.372;13.610;2024-03-08T05:49:08;102002.41;;;-1.42;100.00
80323;BME280;69636;52.372;13.610;2024-03-08T05:51:37;102004.88;;;-1.38;100.00
80323;BME280;69636;52.372;13.610;2024-03-08T05:54:06;102000.03;;;-1.22;100.00
80323;BME280;69636;52.372;13.610;2024-03-08T05:56:33;102003.72;;;-1.29;100.00
80323;BME280;69636;52.372;13.610;2024-03-08T05:59:01;102009.69;;;-1.25;100.00
80323;BME280;69636;52.372;13.610;2024-03-08T06:01:28;102007.69;;;-1.17;100.00
80323;BME280;69636;52.372;13.610;2024-03-08T06:03:56;102010.78;;;-1.32;100.00
80323;BME280;69636;52.372;13.610;2024-03-08T06:06:26;102010.88;;;-1.35;100.00
80323;BME280;69636;52.372;13.610;2024-03-08T06:08:53;102016.84;;;-1.32;100.00
80323;BME280;69636;52.372;13.610;2024-03-08T06:11:21;102019.56;;;-1.07;100.00
80323;BME280;69636;52.372;13.610;2024-03-08T06:13:48;102013.56;;;-0.83;100.00
80323;BME280;69636;52.372;13.610;2024-03-08T06:16:16;102014.75;;;-0.66;100.00
80323;BME280;69636;52.372;13.610;2024-03-08T06:18:43;102014.94;;;-0.73;100.00
80323;BME280;69636;52.372;13.610;2024-03-08T06:21:11;102022.06;;;-0.78;100.00
80323;BME280;69636;52.372;13.610;2024-03-08T06:23:41;102012.84;;;-0.61;100.00
80323;BME280;69636;52.372;13.610;2024-03-08T06:26:08;102017.59;;;-0.48;100.00
80323;BME280;69636;52.372;13.610;2024-03-08T06:28:36;102015.22;;;-0.29;100.00
80323;BME280;69636;52.372;13.610;2024-03-08T06:31:03;102008.84;;;-0.22;100.00
80323;BME280;69636;52.372;13.610;2024-03-08T06:33:31;102011.25;;;-0.16;100.00
80323;BME280;69636;52.372;13.610;2024-03-08T06:35:59;102013.91;;;-0.17;100.00
80323;BME280;69636;52.372;13.610;2024-03-08T06:38:26;102014.59;;;0.13;100.00
80323;BME280;69636;52.372;13.610;2024-03-08T06:40:55;102013.44;;;-0.04;100.00
80323;BME280;69636;52.372;13.610;2024-03-08T06:43:22;102011.97;;;0.13;100.00
80323;BME280;69636;52.372;13.610;2024-03-08T06:45:49;102014.38;;;0.19;100.00
80323;BME280;69636;52.372;13.610;2024-03-08T06:48:17;102016.97;;;0.42;100.00
80323;BME280;69636;52.372;13.610;2024-03-08T06:50:45;102005.47;;;0.70;100.00
80323;BME280;69636;52.372;13.610;2024-03-08T06:53:13;102012.59;;;0.88;100.00
80323;BME280;69636;52.372;13.610;2024-03-08T06:55:40;102006.09;;;0.98;100.00
80323;BME280;69636;52.372;13.610;2024-03-08T06:58:09;102009.53;;;1.20;99.68
80323;BME280;69636;52.372;13.610;2024-03-08T07:00:37;102003.66;;;1.35;99.63
80323;BME280;69636;52.372;13.610;2024-03-08T07:03:07;102011.63;;;1.32;99.01
80323;BME280;69636;52.372;13.610;2024-03-08T07:05:35;102014.19;;;1.34;98.24
80323;BME280;69636;52.372;13.610;2024-03-08T07:08:02;102012.72;;;1.69;97.44
80323;BME280;69636;52.372;13.610;2024-03-08T07:10:30;102000.66;;;1.65;95.69
80323;BME280;69636;52.372;13.610;2024-03-08T07:12:57;102004.84;;;1.49;96.70
80323;BME280;69636;52.372;13.610;2024-03-08T07:15:26;102000.78;;;1.42;96.00
80323;BME280;69636;52.372;13.610;2024-03-08T07:17:53;102000.22;;;1.55;95.63
80323;BME280;69636;52.372;13.610;2024-03-08T07:20:21;101998.56;;;1.73;95.22
80323;BME280;69636;52.372;13.610;2024-03-08T07:22:48;102003.41;;;1.62;95.72
80323;BME280;69636;52.372;13.610;2024-03-08T07:25:16;102000.31;;;1.93;94.22
80323;BME280;69636;52.372;13.610;2024-03-08T07:27:43;101992.47;;;1.93;94.14
80323;BME280;69636;52.372;13.610;2024-03-08T07:30:11;101996.84;;;1.92;94.23
80323;BME280;69636;52.372;13.610;2024-03-08T07:32:40;101996.91;;;1.91;93.97
80323;BME280;69636;52.372;13.610;2024-03-08T07:35:08;101984.22;;;2.21;92.51
80323;BME280;69636;52.372;13.610;2024-03-08T07:37:35;101988.34;;;1.87;93.02
80323;BME280;69636;52.372;13.610;2024-03-08T07:40:03;101985.63;;;2.09;91.94
80323;BME280;69636;52.372;13.610;2024-03-08T07:42:30;101994.91;;;2.16;92.07
80323;BME280;69636;52.372;13.610;2024-03-08T07:44:57;101985.66;;;2.28;92.04
80323;BME280;69636;52.372;13.610;2024-03-08T07:47:25;101986.25;;;2.70;90.87
80323;BME280;69636;52.372;13.610;2024-03-08T07:49:54;101979.31;;;3.05;88.24
80323;BME280;69636;52.372;13.610;2024-03-08T07:52:21;101976.94;;;3.18;88.09
80323;BME280;69636;52.372;13.610;2024-03-08T07:54:48;101967.22;;;3.55;87.27
80323;BME280;69636;52.372;13.610;2024-03-08T07:57:16;101974.72;;;3.62;84.36
80323;BME280;69636;52.372;13.610;2024-03-08T07:59:43;101965.22;;;3.60;85.07
80323;BME280;69636;52.372;13.610;2024-03-08T08:02:10;101972.06;;;3.95;83.64
80323;BME280;69636;52.372;13.610;2024-03-08T08:04:38;101965.88;;;4.14;82.19
80323;BME280;69636;52.372;13.610;2024-03-08T08:07:06;101966.44;;;4.19;80.98
80323;BME280;69636;52.372;13.610;2024-03-08T08:09:34;101968.16;;;4.51;80.44
80323;BME280;69636;52.372;13.610;2024-03-08T08:12:02;101967.72;;;4.74;78.38
80323;BME280;69636;52.372;13.610;2024-03-08T08:14:31;101961.72;;;5.18;77.03
80323;BME280;69636;52.372;13.610;2024-03-08T08:16:58;101961.78;;;5.46;73.53
80323;BME280;69636;52.372;13.610;2024-03-08T08:19:26;101961.06;;;5.73;72.22
80323;BME280;69636;52.372;13.610;2024-03-08T08:21:53;101955.66;;;6.19;71.04
80323;BME280;69636;52.372;13.610;2024-03-08T08:24:24;101958.78;;;6.52;68.61
80323;BME280;69636;52.372;13.610;2024-03-08T08:26:52;101953.25;;;6.84;66.80
80323;BME280;69636;52.372;13.610;2024-03-08T08:29:20;101949.72;;;7.10;65.11
80323;BME280;69636;52.372;13.610;2024-03-08T08:31:47;101951.88;;;7.30;63.55
80323;BME280;69636;52.372;13.610;2024-03-08T08:34:16;101955.63;;;7.01;63.12
80323;BME280;69636;52.372;13.610;2024-03-08T08:36:45;101944.59;;;7.21;63.30
80323;BME280;69636;52.372;13.610;2024-03-08T08:39:12;101944.63;;;7.84;60.67
80323;BME280;69636;52.372;13.610;2024-03-08T08:41:41;101935.19;;;8.06;59.80
80323;BME280;69636;52.372;13.610;2024-03-08T08:44:08;101931.19;;;8.00;59.46
80323;BME280;69636;52.372;13.610;2024-03-08T08:46:40;101934.22;;;8.32;59.34
80323;BME280;69636;52.372;13.610;2024-03-08T08:49:08;101934.88;;;8.60;57.73
80323;BME280;69636;52.372;13.610;2024-03-08T08:51:36;101936.97;;;8.31;57.92
80323;BME280;69636;52.372;13.610;2024-03-08T08:54:04;101933.44;;;8.79;55.88
80323;BME280;69636;52.372;13.610;2024-03-08T08:56:33;101926.56;;;9.12;54.65
80323;BME280;69636;52.372;13.610;2024-03-08T08:59:02;101919.88;;;8.95;54.23
80323;BME280;69636;52.372;13.610;2024-03-08T09:01:30;101920.13;;;9.27;52.89
80323;BME280;69636;52.372;13.610;2024-03-08T09:03:57;101915.09;;;9.35;52.29
80323;BME280;69636;52.372;13.610;2024-03-08T09:06:25;101912.81;;;8.72;52.77
80323;BME280;69636;52.372;13.610;2024-03-08T09:08:52;101916.16;;;8.98;52.42
80323;BME280;69636;52.372;13.610;2024-03-08T09:11:19;101914.09;;;9.36;52.59
80323;BME280;69636;52.372;13.610;2024-03-08T09:13:48;101911.28;;;9.84;50.37
80323;BME280;69636;52.372;13.610;2024-03-08T09:16:17;101913.88;;;10.51;48.81
80323;BME280;69636;52.372;13.610;2024-03-08T09:18:44;101896.28;;;10.50;48.80
80323;BME280;69636;52.372;13.610;2024-03-08T09:21:12;101899.91;;;10.15;47.63
80323;BME280;69636;52.372;13.610;2024-03-08T09:23:39;101893.91;;;10.36;46.83
80323;BME280;69636;52.372;13.610;2024-03-08T09:26:07;101892.47;;;9.65;49.32
80323;BME280;69636;52.372;13.610;2024-03-08T09:28:43;101885.72;;;10.05;48.30
80323;BME280;69636;52.372;13.610;2024-03-08T09:31:11;101875.34;;;10.02;48.45
80323;BME280;69636;52.372;13.610;2024-03-08T09:33:41;101883.44;;;10.01;47.74
80323;BME280;69636;52.372;13.610;2024-03-08T09:36:10;101880.41;;;9.49;47.99
80323;BME280;69636;52.372;13.610;2024-03-08T09:38:39;101882.69;;;9.65;48.26
80323;BME280;69636;52.372;13.610;2024-03-08T09:41:10;101879.47;;;9.73;48.52
80323;BME280;69636;52.372;13.610;2024-03-08T09:43:38;101869.78;;;10.28;48.29
80323;BME280;69636;52.372;13.610;2024-03-08T09:46:06;101866.69;;;10.54;46.30
80323;BME280;69636;52.372;13.610;2024-03-08T09:48:35;101872.81;;;10.23;45.36
80323;BME280;69636;52.372;13.610;2024-03-08T09:51:04;101867.84;;;10.94;44.25
80323;BME280;69636;52.372;13.610;2024-03-08T09:53:33;101853.22;;;11.50;43.68
80323;BME280;69636;52.372;13.610;2024-03-08T09:56:00;101857.16;;;12.27;42.63
80323;BME280;69636;52.372;13.610;2024-03-08T09:58:27;101857.75;;;12.40;40.65
80323;BME280;69636;52.372;13.610;2024-03-08T10:00:55;101850.56;;;12.11;41.34
80323;BME280;69636;52.372;13.610;2024-03-08T10:03:23;101851.25;;;11.43;42.33
80323;BME280;69636;52.372;13.610;2024-03-08T10:05:50;101841.88;;;11.48;42.99
80323;BME280;69636;52.372;13.610;2024-03-08T10:08:19;101836.63;;;11.58;42.12
80323;BME280;69636;52.372;13.610;2024-03-08T10:10:46;101843.31;;;11.52;42.91
80323;BME280;69636;52.372;13.610;2024-03-08T10:13:14;101842.47;;;12.32;41.16
80323;BME280;69636;52.372;13.610;2024-03-08T10:15:41;101836.72;;;11.77;41.19
80323;BME280;69636;52.372;13.610;2024-03-08T10:18:08;101832.47;;;11.14;42.81
80323;BME280;69636;52.372;13.610;2024-03-08T10:20:36;101820.72;;;11.37;42.31
80323;BME280;69636;52.372;13.610;2024-03-08T10:23:04;101831.41;;;11.26;42.70
80323;BME280;69636;52.372;13.610;2024-03-08T10:25:39;101822.41;;;11.38;43.12
80323;BME280;69636;52.372;13.610;2024-03-08T10:28:07;101812.88;;;11.76;42.08
80323;BME280;69636;52.372;13.610;2024-03-08T10:30:34;101814.72;;;12.54;40.38
80323;BME280;69636;52.372;13.610;2024-03-08T10:33:02;101825.81;;;12.59;38.60
80323;BME280;69636;52.372;13.610;2024-03-08T10:35:30;101818.19;;;11.76;39.28
80323;BME280;69636;52.372;13.610;2024-03-08T10:37:57;101804.94;;;12.45;39.23
80323;BME280;69636;52.372;13.610;2024-03-08T10:40:26;101810.22;;;12.83;39.57
80323;BME280;69636;52.372;13.610;2024-03-08T10:42:58;101816.03;;;11.81;39.29
80323;BME280;69636;52.372;13.610;2024-03-08T10:45:35;101810.97;;;11.78;39.67
80323;BME280;69636;52.372;13.610;2024-03-08T10:48:28;101803.66;;;12.58;38.28
80323;BME280;69636;52.372;13.610;2024-03-08T10:50:57;101794.25;;;12.35;38.63
80323;BME280;69636;52.372;13.610;2024-03-08T10:53:26;101800.41;;;12.74;38.25
80323;BME280;69636;52.372;13.610;2024-03-08T10:55:56;101789.06;;;12.24;38.16
80323;BME280;69636;52.372;13.610;2024-03-08T10:58:27;101782.69;;;11.77;39.18
80323;BME280;69636;52.372;13.610;2024-03-08T11:00:55;101784.31;;;12.37;36.98
80323;BME280;69636;52.372;13.610;2024-03-08T11:03:45;101774.22;;;12.60;36.47
80323;BME280;69636;52.372;13.610;2024-03-08T11:06:15;101771.56;;;12.60;37.21
80323;BME280;69636;52.372;13.610;2024-03-08T11:08:42;101769.97;;;12.86;36.50
80323;BME280;69636;52.372;13.610;2024-03-08T11:11:24;101761.97;;;12.86;36.58
80323;BME280;69636;52.372;13.610;2024-03-08T11:13:53;101762.97;;;13.32;36.39
80323;BME280;69636;52.372;13.610;2024-03-08T11:16:43;101761.06;;;13.15;36.07
80323;BME280;69636;52.372;13.610;2024-03-08T11:19:27;101749.66;;;14.05;33.99
80323;BME280;69636;52.372;13.610;2024-03-08T11:21:58;101749.13;;;14.72;34.28
80323;BME280;69636;52.372;13.610;2024-03-08T11:24:25;101742.72;;;13.94;34.75
80323;BME280;69636;52.372;13.610;2024-03-08T11:26:57;101739.03;;;13.13;35.33
80323;BME280;69636;52.372;13.610;2024-03-08T11:29:37;101733.41;;;14.34;34.17
80323;BME280;69636;52.372;13.610;2024-03-08T11:32:06;101733.44;;;13.06;35.25
80323;BME280;69636;52.372;13.610;2024-03-08T11:34:35;101733.44;;;12.31;36.30
80323;BME280;69636;52.372;13.610;2024-03-08T11:37:04;101733.75;;;12.18;36.84
80323;BME280;69636;52.372;13.610;2024-03-08T11:39:32;101730.91;;;12.00;37.42
80323;BME280;69636;52.372;13.610;2024-03-08T11:41:59;101724.47;;;13.07;35.84
80323;BME280;69636;52.372;13.610;2024-03-08T11:44:27;101722.50;;;13.46;34.87
80323;BME280;69636;52.372;13.610;2024-03-08T11:46:56;101712.06;;;14.16;34.23
80323;BME280;69636;52.372;13.610;2024-03-08T11:49:23;101710.56;;;13.68;34.36
80323;BME280;69636;52.372;13.610;2024-03-08T11:51:52;101721.13;;;13.42;34.43
80323;BME280;69636;52.372;13.610;2024-03-08T11:54:21;101716.81;;;13.59;33.58
80323;BME280;69636;52.372;13.610;2024-03-08T11:56:51;101717.84;;;13.11;34.49
80323;BME280;69636;52.372;13.610;2024-03-08T11:59:19;101718.00;;;12.53;34.47
80323;BME280;69636;52.372;13.610;2024-03-08T12:01:59;101716.19;;;13.01;33.60
80323;BME280;69636;52.372;13.610;2024-03-08T12:04:27;101705.78;;;13.72;32.91
80323;BME280;69636;52.372;13.610;2024-03-08T12:06:55;101701.13;;;14.09;32.54
80323;BME280;69636;52.372;13.610;2024-03-08T12:09:22;101702.13;;;14.08;32.29
80323;BME280;69636;52.372;13.610;2024-03-08T12:11:49;101699.53;;;14.52;31.95
80323;BME280;69636;52.372;13.610;2024-03-08T12:14:17;101697.16;;;14.13;32.11
80323;BME280;69636;52.372;13.610;2024-03-08T12:16:45;101693.06;;;14.19;31.88
80323;BME280;69636;52.372;13.610;2024-03-08T12:19:16;101696.56;;;15.15;30.85
80323;BME280;69636;52.372;13.610;2024-03-08T12:21:43;101691.50;;;13.81;32.70
80323;BME280;69636;52.372;13.610;2024-03-08T12:24:10;101682.22;;;14.64;31.84
80323;BME280;69636;52.372;13.610;2024-03-08T12:26:38;101680.22;;;14.92;31.07
80323;BME280;69636;52.372;13.610;2024-03-08T12:29:16;101677.72;;;14.90;30.60
80323;BME280;69636;52.372;13.610;2024-03-08T12:31:44;101681.47;;;15.06;29.30
80323;BME280;69636;52.372;13.610;2024-03-08T12:34:12;101673.34;;;15.57;29.11
80323;BME280;69636;52.372;13.610;2024-03-08T12:36:46;101671.22;;;15.35;29.75
80323;BME280;69636;52.372;13.610;2024-03-08T12:39:16;101654.44;;;14.57;30.58
80323;BME280;69636;52.372;13.610;2024-03-08T12:41:44;101661.75;;;14.47;31.08